Time;durP1;ratioP1;P1;durP2;ratioP2;P2;SDS_P1;SDS_P2;PMS_P1;PMS_P2;Temp;Humidity;BMP_temperature;BMP_pressure;BME280_temperature;BME280_humidity;BME280_pressure;Samples;Min_cycle;Max_cycle;Signal;HPM_P1;HPM_P2
2022/03/02 00:00:58;;;;;;;;;;;4.00;68.70;;;;;;5050902;28;19929;-70
2022/03/02 00:03:25;;;;;;;;;;;4.00;68.70;;;;;;5054295;28;19935;-69
2022/03/02 00:05:51;;;;;;;;;;;4.00;68.80;;;;;;5056994;28;19928;-71
2022/03/02 00:08:18;;;;;;;;;;;4.00;69.00;;;;;;5058450;28;19932;-69
2022/03/02 00:10:44;;;;;;;;;;;4.00;69.20;;;;;;5057679;28;19935;-70
2022/03/02 00:13:11;;;;;;;;;;;3.90;69.20;;;;;;5058004;28;19935;-70
2022/03/02 00:15:38;;;;;;;;;;;3.90;69.30;;;;;;5060572;28;19928;-69
2022/03/02 00:18:06;;;;;;;;;;;3.90;69.40;;;;;;5054007;28;20325;-70
2022/03/02 00:20:33;;;;;;;;;;;3.90;69.40;;;;;;5057769;28;19933;-71
2022/03/02 00:22:59;;;;;;;;;;;3.90;69.40;;;;;;5056385;28;19936;-71
2022/03/02 00:25:26;;;;;;;;;;;3.90;69.50;;;;;;5058904;28;19928;-70
2022/03/02 00:27:53;;;;;;;;;;;3.90;69.50;;;;;;5062631;28;19952;-70
2022/03/02 00:30:19;;;;;;;;;;;3.90;69.80;;;;;;5056234;28;20034;-71
2022/03/02 00:32:46;;;;;;;;;;;3.80;69.40;;;;;;5054826;28;19933;-72
2022/03/02 00:35:14;;;;;;;;;;;3.90;69.50;;;;;;5058755;28;19928;-70
2022/03/02 00:37:41;;;;;;;;;;;3.80;69.60;;;;;;5064377;28;19936;-70
2022/03/02 00:40:07;;;;;;;;;;;3.80;69.70;;;;;;5058333;28;19940;-70
2022/03/02 00:42:34;;;;;;;;;;;3.80;69.70;;;;;;5054375;28;20629;-71
2022/03/02 00:45:01;;;;;;;;;;;3.80;69.70;;;;;;5056337;28;20413;-70
2022/03/02 00:47:27;;;;;;;;;;;3.80;69.70;;;;;;5055952;28;19929;-68
2022/03/02 00:49:54;;;;;;;;;;;3.80;70.00;;;;;;5052354;28;19966;-68
2022/03/02 00:52:22;;;;;;;;;;;3.80;70.10;;;;;;5058332;28;19928;-70
2022/03/02 00:54:49;;;;;;;;;;;3.70;70.20;;;;;;5050709;28;19932;-70
2022/03/02 00:57:15;;;;;;;;;;;3.70;70.20;;;;;;5058784;28;19932;-71
2022/03/02 00:59:42;;;;;;;;;;;3.70;70.10;;;;;;5056104;28;19971;-70
2022/03/02 01:02:09;;;;;;;;;;;3.70;70.10;;;;;;5057928;28;20298;-69
2022/03/02 01:04:35;;;;;;;;;;;3.70;70.20;;;;;;5054839;28;19932;-71
2022/03/02 01:07:02;;;;;;;;;;;3.70;70.30;;;;;;5053585;28;19940;-71
2022/03/02 01:09:30;;;;;;;;;;;3.70;70.30;;;;;;5052096;28;19939;-70
2022/03/02 01:11:56;;;;;;;;;;;3.60;70.30;;;;;;5052881;28;19932;-71
2022/03/02 01:14:23;;;;;;;;;;;3.60;70.40;;;;;;5057646;28;19935;-69
2022/03/02 01:16:50;;;;;;;;;;;3.60;70.30;;;;;;5052476;28;19971;-70
2022/03/02 01:19:16;;;;;;;;;;;3.60;70.60;;;;;;5058430;28;19960;-70
2022/03/02 01:21:43;;;;;;;;;;;3.60;70.60;;;;;;5060483;28;19935;-69
2022/03/02 01:24:09;;;;;;;;;;;3.60;70.70;;;;;;5061755;28;19928;-70
2022/03/02 01:26:37;;;;;;;;;;;3.50;70.80;;;;;;5051259;28;19929;-70
2022/03/02 01:29:04;;;;;;;;;;;3.50;70.80;;;;;;5048685;28;19929;-69
2022/03/02 01:31:31;;;;;;;;;;;3.50;71.00;;;;;;5052650;28;20407;-71
2022/03/02 01:33:58;;;;;;;;;;;3.50;71.00;;;;;;5060387;28;19936;-70
2022/03/02 01:36:25;;;;;;;;;;;3.50;71.10;;;;;;5054720;28;19974;-70
2022/03/02 01:38:51;;;;;;;;;;;3.50;71.10;;;;;;5054213;28;20392;-70
2022/03/02 01:41:19;;;;;;;;;;;3.40;71.10;;;;;;5054045;28;21975;-71
2022/03/02 01:43:47;;;;;;;;;;;3.40;71.10;;;;;;5055981;28;19936;-71
2022/03/02 01:46:15;;;;;;;;;;;3.40;71.20;;;;;;5053628;28;19951;-70
2022/03/02 01:48:42;;;;;;;;;;;3.40;71.40;;;;;;5051662;28;20006;-71
2022/03/02 01:51:09;;;;;;;;;;;3.30;71.50;;;;;;5050609;28;19935;-70
2022/03/02 01:53:36;;;;;;;;;;;3.30;72.30;;;;;;5047197;28;20447;-70
2022/03/02 01:56:03;;;;;;;;;;;3.30;71.50;;;;;;5052842;28;19929;-71
2022/03/02 01:58:30;;;;;;;;;;;3.30;71.60;;;;;;5056954;28;19940;-70
2022/03/02 02:00:59;;;;;;;;;;;3.30;71.50;;;;;;5051757;28;19933;-71
2022/03/02 02:03:26;;;;;;;;;;;3.30;71.50;;;;;;5049009;28;19929;-70
2022/03/02 02:05:52;;;;;;;;;;;3.20;71.60;;;;;;5057492;28;19951;-70
2022/03/02 02:08:19;;;;;;;;;;;3.20;71.60;;;;;;5052002;28;19940;-70
2022/03/02 02:10:45;;;;;;;;;;;3.20;71.60;;;;;;5050373;28;19928;-70
2022/03/02 02:13:12;;;;;;;;;;;3.20;71.70;;;;;;5053466;28;19928;-71
2022/03/02 02:15:39;;;;;;;;;;;3.20;71.80;;;;;;5047692;28;19932;-70
2022/03/02 02:18:07;;;;;;;;;;;3.10;71.80;;;;;;5055281;28;19928;-70
2022/03/02 02:20:36;;;;;;;;;;;3.10;71.80;;;;;;5052629;28;19940;-70
2022/03/02 02:23:03;;;;;;;;;;;3.10;72.50;;;;;;5055542;28;20027;-69
2022/03/02 02:25:30;;;;;;;;;;;3.10;71.90;;;;;;5057097;28;19929;-70
2022/03/02 02:27:56;;;;;;;;;;;3.10;71.80;;;;;;5058790;28;20664;-71
2022/03/02 02:30:24;;;;;;;;;;;3.10;72.00;;;;;;5048810;28;19929;-70
2022/03/02 02:32:50;;;;;;;;;;;3.10;72.00;;;;;;5050877;28;19928;-70
2022/03/02 02:35:17;;;;;;;;;;;3.00;71.90;;;;;;5054455;28;19928;-70
2022/03/02 02:37:45;;;;;;;;;;;3.00;72.00;;;;;;5060327;28;19928;-70
2022/03/02 02:40:12;;;;;;;;;;;3.00;72.10;;;;;;5048821;28;19947;-69
2022/03/02 02:42:44;;;;;;;;;;;3.00;72.10;;;;;;5055098;28;19932;-70
2022/03/02 02:45:12;;;;;;;;;;;2.90;72.00;;;;;;5049687;28;19932;-69
2022/03/02 02:47:38;;;;;;;;;;;2.90;72.10;;;;;;5051607;28;19932;-69
2022/03/02 02:50:14;;;;;;;;;;;2.90;72.10;;;;;;5052238;28;19942;-70
2022/03/02 02:52:41;;;;;;;;;;;2.90;72.20;;;;;;5054365;28;19936;-70
2022/03/02 02:55:10;;;;;;;;;;;2.90;72.30;;;;;;5047992;28;19933;-69
2022/03/02 02:57:36;;;;;;;;;;;2.80;72.30;;;;;;5054894;28;19936;-70
2022/03/02 03:00:07;;;;;;;;;;;2.80;72.30;;;;;;5051866;28;19935;-71
2022/03/02 03:02:33;;;;;;;;;;;2.80;72.30;;;;;;5050676;28;20446;-70
2022/03/02 03:05:00;;;;;;;;;;;2.80;72.30;;;;;;5048523;28;19935;-70
2022/03/02 03:07:26;;;;;;;;;;;2.80;72.30;;;;;;5049004;28;19928;-71
2022/03/02 03:09:53;;;;;;;;;;;2.70;72.30;;;;;;5053034;28;19928;-69
2022/03/02 03:12:21;;;;;;;;;;;2.70;72.20;;;;;;5049159;28;19928;-70
2022/03/02 03:14:47;;;;;;;;;;;2.70;72.40;;;;;;5052350;28;19940;-71
2022/03/02 03:17:14;;;;;;;;;;;2.70;72.60;;;;;;5052944;28;19936;-71
2022/03/02 03:19:40;;;;;;;;;;;2.60;72.70;;;;;;5057539;28;19952;-70
2022/03/02 03:22:07;;;;;;;;;;;2.60;72.70;;;;;;5049291;28;19956;-70
2022/03/02 03:24:34;;;;;;;;;;;2.60;72.70;;;;;;5057020;28;19928;-70
2022/03/02 03:27:00;;;;;;;;;;;2.60;72.70;;;;;;5059064;28;19933;-71
2022/03/02 03:29:28;;;;;;;;;;;2.60;72.80;;;;;;5052945;28;19936;-69
2022/03/02 03:31:55;;;;;;;;;;;2.60;72.70;;;;;;5056009;28;19936;-70
2022/03/02 03:34:21;;;;;;;;;;;2.50;73.30;;;;;;5053518;28;19928;-70
2022/03/02 03:36:48;;;;;;;;;;;2.50;72.40;;;;;;5056655;28;20016;-70
2022/03/02 03:39:14;;;;;;;;;;;2.50;72.20;;;;;;5051707;28;19935;-69
2022/03/02 03:41:41;;;;;;;;;;;2.50;72.20;;;;;;5059962;28;19929;-70
2022/03/02 03:44:07;;;;;;;;;;;2.50;72.20;;;;;;5060016;28;19943;-70
2022/03/02 03:46:35;;;;;;;;;;;2.40;72.30;;;;;;5059393;28;19939;-71
2022/03/02 03:49:02;;;;;;;;;;;2.40;72.40;;;;;;5057177;28;19928;-70
2022/03/02 03:51:28;;;;;;;;;;;2.40;72.50;;;;;;5052972;28;19929;-71
2022/03/02 03:53:55;;;;;;;;;;;2.40;72.50;;;;;;5065422;28;19924;-68
2022/03/02 03:56:22;;;;;;;;;;;2.30;72.50;;;;;;5053339;28;19982;-71
2022/03/02 03:58:48;;;;;;;;;;;2.30;72.60;;;;;;5055213;28;20368;-70
2022/03/02 04:01:15;;;;;;;;;;;2.30;72.80;;;;;;5059448;28;20308;-69
2022/03/02 04:03:43;;;;;;;;;;;2.30;72.90;;;;;;5055217;28;19951;-69
2022/03/02 04:06:09;;;;;;;;;;;2.20;73.00;;;;;;5054875;28;19928;-69
2022/03/02 04:08:36;;;;;;;;;;;2.20;72.90;;;;;;5059552;28;20011;-70
2022/03/02 04:11:03;;;;;;;;;;;2.20;73.10;;;;;;5058296;28;19928;-70
2022/03/02 04:13:30;;;;;;;;;;;2.20;73.20;;;;;;5057336;28;20336;-69
2022/03/02 04:15:57;;;;;;;;;;;2.20;73.30;;;;;;5057021;28;19991;-70
2022/03/02 04:18:23;;;;;;;;;;;2.10;73.20;;;;;;5057986;28;19929;-68
2022/03/02 04:20:52;;;;;;;;;;;2.20;73.20;;;;;;5055156;28;20011;-69
2022/03/02 04:23:19;;;;;;;;;;;2.10;73.10;;;;;;5058867;28;19982;-69
2022/03/02 04:25:45;;;;;;;;;;;2.10;73.10;;;;;;5062456;28;19932;-69
2022/03/02 04:28:12;;;;;;;;;;;2.10;73.20;;;;;;5063254;28;19940;-68
2022/03/02 04:30:39;;;;;;;;;;;2.10;73.30;;;;;;5054256;28;20116;-69
2022/03/02 04:33:05;;;;;;;;;;;2.10;73.50;;;;;;5058769;28;19928;-69
2022/03/02 04:35:33;;;;;;;;;;;2.00;73.50;;;;;;5056524;28;20377;-69
2022/03/02 04:38:01;;;;;;;;;;;2.00;73.50;;;;;;5052043;28;20576;-69
2022/03/02 04:40:28;;;;;;;;;;;2.00;73.50;;;;;;5051189;28;19968;-69
2022/03/02 04:42:55;;;;;;;;;;;2.00;73.40;;;;;;5062455;28;19939;-68
2022/03/02 04:45:25;;;;;;;;;;;2.00;73.50;;;;;;5052068;28;20029;-68
2022/03/02 04:47:52;;;;;;;;;;;2.00;73.60;;;;;;5057469;28;19929;-69
2022/03/02 04:50:19;;;;;;;;;;;1.90;73.70;;;;;;5056704;28;19928;-69
2022/03/02 04:52:46;;;;;;;;;;;1.90;73.70;;;;;;5052151;28;19933;-70
2022/03/02 04:55:14;;;;;;;;;;;1.90;73.70;;;;;;5052588;28;19936;-70
2022/03/02 04:57:41;;;;;;;;;;;1.80;73.70;;;;;;5066543;28;19936;-69
2022/03/02 05:00:10;;;;;;;;;;;1.80;73.70;;;;;;5051946;28;19933;-68
2022/03/02 05:02:37;;;;;;;;;;;1.80;73.80;;;;;;5057607;28;19963;-68
2022/03/02 05:05:04;;;;;;;;;;;1.80;73.80;;;;;;5057175;28;19932;-69
2022/03/02 05:07:31;;;;;;;;;;;1.80;73.90;;;;;;5057230;28;19936;-69
2022/03/02 05:09:57;;;;;;;;;;;1.80;74.60;;;;;;5064430;28;19936;-69
2022/03/02 05:12:25;;;;;;;;;;;1.70;73.70;;;;;;5055898;28;19935;-68
2022/03/02 05:14:52;;;;;;;;;;;1.80;73.80;;;;;;5056771;28;19928;-69
2022/03/02 05:17:19;;;;;;;;;;;1.70;73.70;;;;;;5057644;28;19929;-69
2022/03/02 05:19:46;;;;;;;;;;;1.70;73.70;;;;;;5059714;28;19939;-69
2022/03/02 05:22:12;;;;;;;;;;;1.70;73.60;;;;;;5059707;28;20572;-69
2022/03/02 05:24:39;;;;;;;;;;;1.70;73.80;;;;;;5060875;28;19934;-69
2022/03/02 05:27:06;;;;;;;;;;;1.70;73.80;;;;;;5051792;28;19929;-69
2022/03/02 05:29:34;;;;;;;;;;;1.60;73.80;;;;;;5058912;28;20004;-68
2022/03/02 05:32:01;;;;;;;;;;;1.60;73.90;;;;;;5056128;28;19932;-69
2022/03/02 05:34:27;;;;;;;;;;;1.60;74.00;;;;;;5059099;28;19929;-69
2022/03/02 05:36:54;;;;;;;;;;;1.60;73.90;;;;;;5058015;28;19936;-68
2022/03/02 05:39:20;;;;;;;;;;;1.50;74.00;;;;;;5060605;28;19935;-68
2022/03/02 05:41:47;;;;;;;;;;;1.50;74.10;;;;;;5056594;28;19937;-67
2022/03/02 05:44:13;;;;;;;;;;;1.60;74.10;;;;;;5062011;28;20376;-70
2022/03/02 05:46:41;;;;;;;;;;;1.60;74.20;;;;;;5051798;28;19940;-68
2022/03/02 05:49:08;;;;;;;;;;;1.50;74.20;;;;;;5052402;28;19932;-68
2022/03/02 05:51:35;;;;;;;;;;;1.50;74.30;;;;;;5057528;28;20362;-69
2022/03/02 05:54:03;;;;;;;;;;;1.50;74.30;;;;;;5051630;28;19925;-70
2022/03/02 05:56:30;;;;;;;;;;;1.50;74.40;;;;;;5055698;28;19954;-69
2022/03/02 05:58:58;;;;;;;;;;;1.50;74.20;;;;;;5054951;28;20289;-68
2022/03/02 06:01:24;;;;;;;;;;;1.30;74.30;;;;;;5070004;28;19936;-68
2022/03/02 06:03:52;;;;;;;;;;;1.20;75.20;;;;;;5062364;28;20403;-68
2022/03/02 06:06:19;;;;;;;;;;;1.20;75.70;;;;;;5067234;28;19928;-68
2022/03/02 06:08:46;;;;;;;;;;;1.20;75.90;;;;;;5061487;28;19928;-68
2022/03/02 06:11:13;;;;;;;;;;;1.20;76.10;;;;;;5058846;28;19942;-68
2022/03/02 06:13:40;;;;;;;;;;;1.10;75.90;;;;;;5061759;28;20304;-68
2022/03/02 06:16:07;;;;;;;;;;;1.20;75.80;;;;;;5065272;28;20018;-68
2022/03/02 06:18:34;;;;;;;;;;;1.20;75.70;;;;;;5063304;28;19982;-68
2022/03/02 06:21:03;;;;;;;;;;;1.20;75.60;;;;;;5058475;28;20287;-69
2022/03/02 06:23:30;;;;;;;;;;;1.20;75.60;;;;;;5055107;28;19929;-68
2022/03/02 06:25:57;;;;;;;;;;;1.20;75.50;;;;;;5054565;28;19929;-69
2022/03/02 06:28:24;;;;;;;;;;;1.20;75.50;;;;;;5058225;28;19929;-68
2022/03/02 06:30:51;;;;;;;;;;;1.20;75.50;;;;;;5052785;28;20389;-68
2022/03/02 06:33:19;;;;;;;;;;;1.20;75.40;;;;;;5064750;28;20021;-67
2022/03/02 06:35:46;;;;;;;;;;;1.20;75.50;;;;;;5070727;28;19971;-69
2022/03/02 06:38:14;;;;;;;;;;;1.20;75.50;;;;;;5062464;28;20755;-68
2022/03/02 06:40:41;;;;;;;;;;;1.20;75.50;;;;;;5053145;28;19960;-68
2022/03/02 06:43:10;;;;;;;;;;;1.20;75.40;;;;;;5059277;28;20552;-69
2022/03/02 06:45:49;;;;;;;;;;;1.20;75.40;;;;;;5059450;28;19939;-69
2022/03/02 06:48:19;;;;;;;;;;;1.20;75.60;;;;;;5057943;28;19928;-69
2022/03/02 06:50:46;;;;;;;;;;;1.20;75.60;;;;;;5054620;28;19951;-68
2022/03/02 06:53:14;;;;;;;;;;;1.20;75.60;;;;;;5057807;28;20383;-68
2022/03/02 06:55:41;;;;;;;;;;;1.20;75.70;;;;;;5062207;28;19967;-68
2022/03/02 06:58:09;;;;;;;;;;;1.20;75.60;;;;;;5059990;28;19940;-68
2022/03/02 07:00:35;;;;;;;;;;;1.20;75.50;;;;;;5061349;28;19936;-68
2022/03/02 07:03:03;;;;;;;;;;;1.20;75.60;;;;;;5068894;28;20638;-69
2022/03/02 07:05:31;;;;;;;;;;;1.20;75.60;;;;;;5068095;28;19935;-69
2022/03/02 07:07:59;;;;;;;;;;;1.20;75.60;;;;;;5056146;28;19928;-69
2022/03/02 07:10:27;;;;;;;;;;;1.20;75.60;;;;;;5061096;28;19928;-68
2022/03/02 07:12:55;;;;;;;;;;;1.20;75.60;;;;;;5069472;28;19928;-67
2022/03/02 07:15:22;;;;;;;;;;;1.20;75.70;;;;;;5053116;28;20231;-68
2022/03/02 07:17:48;;;;;;;;;;;1.20;75.70;;;;;;5058289;28;20040;-68
2022/03/02 07:20:15;;;;;;;;;;;1.20;75.70;;;;;;5067788;28;19937;-68
2022/03/02 07:22:43;;;;;;;;;;;1.20;75.80;;;;;;5062560;28;19932;-68
2022/03/02 07:25:11;;;;;;;;;;;1.20;75.80;;;;;;5058048;28;19975;-69
2022/03/02 07:27:40;;;;;;;;;;;1.20;75.80;;;;;;5057044;28;19928;-69
2022/03/02 07:30:07;;;;;;;;;;;1.20;75.80;;;;;;5064245;28;19935;-69
2022/03/02 07:32:35;;;;;;;;;;;1.20;75.80;;;;;;5056572;28;19929;-69
2022/03/02 07:35:02;;;;;;;;;;;1.20;75.80;;;;;;5067731;28;20009;-69
2022/03/02 07:37:29;;;;;;;;;;;1.20;75.80;;;;;;5053346;28;19928;-68
2022/03/02 07:39:56;;;;;;;;;;;1.20;75.70;;;;;;5059001;28;19933;-68
2022/03/02 07:42:23;;;;;;;;;;;1.20;75.70;;;;;;5056205;28;19936;-69
2022/03/02 07:44:51;;;;;;;;;;;1.20;75.80;;;;;;5059741;28;19935;-69
2022/03/02 07:47:18;;;;;;;;;;;1.30;75.80;;;;;;5050999;28;19929;-68
2022/03/02 07:49:45;;;;;;;;;;;1.20;75.70;;;;;;5061003;28;19928;-68
2022/03/02 07:52:14;;;;;;;;;;;1.30;75.80;;;;;;5068190;28;19934;-69
2022/03/02 07:54:41;;;;;;;;;;;1.30;75.70;;;;;;5061627;28;19955;-69
2022/03/02 07:57:09;;;;;;;;;;;1.30;75.70;;;;;;5062460;28;20042;-68
2022/03/02 07:59:37;;;;;;;;;;;1.30;75.60;;;;;;5060505;28;19932;-69
2022/03/02 08:02:06;;;;;;;;;;;1.30;75.60;;;;;;5065961;28;19986;-68
2022/03/02 08:04:32;;;;;;;;;;;1.40;75.60;;;;;;5064183;28;19932;-69
2022/03/02 08:06:59;;;;;;;;;;;1.40;75.50;;;;;;5066682;28;19928;-71
2022/03/02 08:09:26;;;;;;;;;;;1.30;75.40;;;;;;5056162;28;20425;-72
2022/03/02 08:11:53;;;;;;;;;;;1.40;75.30;;;;;;5057093;28;19944;-71
2022/03/02 08:14:23;;;;;;;;;;;1.40;75.30;;;;;;5056759;28;20022;-71
2022/03/02 08:16:51;;;;;;;;;;;1.40;75.20;;;;;;5053192;28;19964;-71
2022/03/02 08:19:19;;;;;;;;;;;1.40;75.20;;;;;;5055303;28;20692;-72
2022/03/02 08:21:47;;;;;;;;;;;1.40;75.10;;;;;;5056845;28;19935;-71
2022/03/02 08:24:16;;;;;;;;;;;1.40;75.10;;;;;;5050207;28;20704;-72
2022/03/02 08:26:43;;;;;;;;;;;1.40;75.00;;;;;;5057322;28;19932;-71
2022/03/02 08:29:11;;;;;;;;;;;1.40;75.00;;;;;;5056630;28;19928;-71
2022/03/02 08:31:39;;;;;;;;;;;1.50;74.90;;;;;;5058998;28;20494;-72
2022/03/02 08:34:06;;;;;;;;;;;1.50;74.90;;;;;;5053240;28;20361;-71
2022/03/02 08:36:34;;;;;;;;;;;1.50;74.90;;;;;;5056340;28;19932;-71
2022/03/02 08:39:01;;;;;;;;;;;1.50;74.80;;;;;;5052554;28;20007;-72
2022/03/02 08:41:28;;;;;;;;;;;1.50;74.70;;;;;;5057290;28;19939;-71
2022/03/02 08:43:55;;;;;;;;;;;1.60;74.70;;;;;;5053981;28;19960;-72
2022/03/02 08:46:22;;;;;;;;;;;1.60;74.60;;;;;;5059543;28;19928;-71
2022/03/02 08:48:49;;;;;;;;;;;1.60;74.60;;;;;;5059777;28;20299;-72
2022/03/02 08:51:16;;;;;;;;;;;1.60;74.50;;;;;;5059306;28;19924;-71
2022/03/02 08:53:44;;;;;;;;;;;1.60;74.50;;;;;;5052205;28;19971;-72
2022/03/02 08:56:11;;;;;;;;;;;1.60;74.50;;;;;;5056909;28;19933;-71
2022/03/02 08:58:38;;;;;;;;;;;1.70;74.60;;;;;;5068997;28;19929;-71
2022/03/02 09:01:04;;;;;;;;;;;1.70;74.50;;;;;;5050452;28;19925;-72
2022/03/02 09:03:32;;;;;;;;;;;1.70;74.50;;;;;;5054671;28;19928;-71
2022/03/02 09:05:59;;;;;;;;;;;1.70;74.40;;;;;;5056877;28;19935;-72
2022/03/02 09:08:26;;;;;;;;;;;1.70;74.30;;;;;;5057579;28;19931;-71
2022/03/02 09:10:54;;;;;;;;;;;1.80;74.30;;;;;;5055228;28;19940;-71
2022/03/02 09:13:21;;;;;;;;;;;1.80;74.30;;;;;;5055799;28;19933;-72
2022/03/02 09:15:48;;;;;;;;;;;1.80;74.20;;;;;;5055481;28;19939;-72
2022/03/02 09:18:15;;;;;;;;;;;1.80;74.20;;;;;;5058641;28;19929;-72
2022/03/02 09:20:43;;;;;;;;;;;1.80;74.20;;;;;;5054176;28;19983;-72
2022/03/02 09:23:10;;;;;;;;;;;1.90;74.30;;;;;;5058314;28;19933;-71
2022/03/02 09:25:38;;;;;;;;;;;1.90;74.10;;;;;;5058513;28;19925;-72
2022/03/02 09:28:07;;;;;;;;;;;1.90;73.90;;;;;;5065342;28;19935;-72
2022/03/02 09:30:34;;;;;;;;;;;1.90;73.90;;;;;;5055979;28;19928;-72
2022/03/02 09:33:01;;;;;;;;;;;2.00;73.90;;;;;;5063949;28;19928;-71
2022/03/02 09:35:29;;;;;;;;;;;2.00;73.80;;;;;;5065055;28;19935;-71
2022/03/02 09:37:56;;;;;;;;;;;2.00;73.80;;;;;;5058284;28;19928;-72
2022/03/02 09:40:24;;;;;;;;;;;2.00;73.80;;;;;;5052664;28;20320;-72
2022/03/02 09:42:54;;;;;;;;;;;2.00;73.70;;;;;;5058317;28;19933;-72
2022/03/02 09:45:22;;;;;;;;;;;2.10;73.60;;;;;;5066734;28;19935;-72
2022/03/02 09:47:50;;;;;;;;;;;2.10;73.50;;;;;;5052858;28;19928;-71
2022/03/02 09:50:18;;;;;;;;;;;2.10;73.40;;;;;;5060764;28;19939;-72
2022/03/02 09:52:46;;;;;;;;;;;2.10;73.30;;;;;;5057061;28;20019;-71
2022/03/02 09:55:14;;;;;;;;;;;2.20;73.30;;;;;;5058776;28;20015;-71
2022/03/02 09:57:42;;;;;;;;;;;2.20;73.30;;;;;;5060393;28;19936;-71
2022/03/02 10:00:10;;;;;;;;;;;2.20;73.30;;;;;;5051094;28;19963;-71
2022/03/02 10:02:40;;;;;;;;;;;2.20;73.20;;;;;;5056307;28;19940;-71
2022/03/02 10:05:09;;;;;;;;;;;2.30;73.10;;;;;;5059249;28;19990;-71
2022/03/02 10:07:36;;;;;;;;;;;2.30;73.10;;;;;;5056441;28;19933;-71
2022/03/02 10:10:05;;;;;;;;;;;2.30;73.10;;;;;;5055193;28;19967;-71
2022/03/02 10:12:32;;;;;;;;;;;2.30;73.00;;;;;;5056951;28;19928;-71
2022/03/02 10:14:59;;;;;;;;;;;2.40;72.90;;;;;;5054215;28;19928;-71
2022/03/02 10:17:31;;;;;;;;;;;2.40;72.80;;;;;;5050329;28;20381;-71
2022/03/02 10:20:01;;;;;;;;;;;2.40;72.70;;;;;;5058685;28;19928;-71
2022/03/02 10:22:43;;;;;;;;;;;2.40;72.70;;;;;;5047999;28;19928;-71
2022/03/02 10:25:10;;;;;;;;;;;2.50;72.60;;;;;;5023843;28;19933;-71
2022/03/02 10:27:43;;;;;;;;;;;2.50;72.40;;;;;;5059180;28;19928;-71
2022/03/02 10:30:11;;;;;;;;;;;2.50;72.40;;;;;;5048099;28;19936;-71
2022/03/02 10:32:41;;;;;;;;;;;2.60;72.40;;;;;;5056465;28;19928;-71
2022/03/02 10:35:10;;;;;;;;;;;2.70;72.50;;;;;;5054112;28;19933;-72
2022/03/02 10:37:37;;;;;;;;;;;2.60;72.30;;;;;;5056090;28;19939;-72
2022/03/02 10:40:10;;;;;;;;;;;2.70;72.20;;;;;;5052113;28;19939;-71
2022/03/02 10:42:38;;;;;;;;;;;2.70;72.00;;;;;;5059847;28;20355;-71
2022/03/02 10:45:10;;;;;;;;;;;2.70;71.90;;;;;;5053774;28;20384;-72
2022/03/02 10:47:39;;;;;;;;;;;2.80;72.00;;;;;;5051275;28;19929;-71
2022/03/02 10:50:06;;;;;;;;;;;2.80;72.00;;;;;;5051332;28;19928;-71
2022/03/02 10:52:37;;;;;;;;;;;2.80;72.20;;;;;;5053014;28;20286;-71
2022/03/02 10:55:05;;;;;;;;;;;2.90;72.00;;;;;;5050147;28;19928;-71
2022/03/02 10:57:32;;;;;;;;;;;2.90;72.20;;;;;;5044936;28;20641;-71
2022/03/02 11:00:02;;;;;;;;;;;2.90;72.00;;;;;;5054636;28;20630;-71
2022/03/02 11:02:29;;;;;;;;;;;3.00;71.80;;;;;;5057697;28;20463;-72
2022/03/02 11:04:58;;;;;;;;;;;3.00;71.90;;;;;;5055209;28;19933;-71
2022/03/02 11:07:25;;;;;;;;;;;3.00;72.00;;;;;;5052881;28;19952;-70
2022/03/02 11:09:53;;;;;;;;;;;3.10;71.60;;;;;;5060132;28;20533;-73
2022/03/02 11:12:21;;;;;;;;;;;3.10;71.50;;;;;;5050330;28;19936;-73
2022/03/02 11:14:55;;;;;;;;;;;3.20;71.50;;;;;;5062534;28;19928;-73
2022/03/02 11:17:22;;;;;;;;;;;3.20;71.30;;;;;;5058284;28;19933;-72
2022/03/02 11:19:48;;;;;;;;;;;3.30;71.30;;;;;;5060735;28;19929;-73
2022/03/02 11:22:16;;;;;;;;;;;3.30;71.10;;;;;;5053375;28;19932;-71
2022/03/02 11:24:43;;;;;;;;;;;3.40;71.20;;;;;;5053607;28;19944;-74
2022/03/02 11:27:25;;;;;;;;;;;3.40;70.90;;;;;;5056509;28;19935;-71
2022/03/02 11:30:00;;;;;;;;;;;3.50;70.50;;;;;;5067801;28;19940;-73
2022/03/02 11:32:27;;;;;;;;;;;3.60;70.60;;;;;;5061039;28;20281;-70
2022/03/02 11:34:57;;;;;;;;;;;3.60;70.40;;;;;;5067873;28;19954;-70
2022/03/02 11:37:24;;;;;;;;;;;3.70;70.30;;;;;;5069122;28;20107;-71
2022/03/02 11:39:51;;;;;;;;;;;3.80;70.20;;;;;;5053714;28;20388;-70
2022/03/02 11:42:19;;;;;;;;;;;3.80;70.00;;;;;;5063953;28;19935;-71
2022/03/02 11:44:50;;;;;;;;;;;3.90;69.60;;;;;;5073176;28;19978;-70
2022/03/02 11:47:20;;;;;;;;;;;4.00;69.50;;;;;;5056184;28;20411;-71
2022/03/02 11:49:48;;;;;;;;;;;4.10;69.50;;;;;;5064501;28;19928;-71
2022/03/02 11:52:16;;;;;;;;;;;4.10;69.30;;;;;;5060861;28;19935;-71
2022/03/02 11:54:44;;;;;;;;;;;4.20;69.10;;;;;;5053205;28;20633;-71
2022/03/02 11:57:10;;;;;;;;;;;4.20;68.90;;;;;;5068607;28;19928;-71
2022/03/02 11:59:39;;;;;;;;;;;4.30;68.80;;;;;;5057675;28;19936;-70
2022/03/02 12:02:11;;;;;;;;;;;4.40;68.60;;;;;;5064006;28;20404;-70
2022/03/02 12:04:39;;;;;;;;;;;4.40;68.40;;;;;;5065610;28;19929;-69
2022/03/02 12:07:06;;;;;;;;;;;4.40;68.30;;;;;;5063145;28;20407;-71
2022/03/02 12:09:33;;;;;;;;;;;4.40;68.30;;;;;;5054553;28;19937;-70
2022/03/02 12:12:07;;;;;;;;;;;4.40;68.20;;;;;;5069893;28;19935;-70
2022/03/02 12:14:38;;;;;;;;;;;4.50;68.20;;;;;;5063558;28;19928;-70
2022/03/02 12:17:13;;;;;;;;;;;4.50;68.10;;;;;;5061780;28;19940;-70
2022/03/02 12:19:41;;;;;;;;;;;4.50;68.10;;;;;;5073238;28;19928;-71
2022/03/02 12:22:10;;;;;;;;;;;4.50;68.20;;;;;;5057611;28;19932;-70
2022/03/02 12:24:37;;;;;;;;;;;4.50;68.20;;;;;;5063557;28;19928;-70
2022/03/02 12:27:05;;;;;;;;;;;4.50;68.10;;;;;;5062617;28;19929;-71
2022/03/02 12:29:32;;;;;;;;;;;4.50;68.10;;;;;;5063233;28;19929;-71
2022/03/02 12:32:10;;;;;;;;;;;4.50;68.10;;;;;;5057861;28;20002;-70
2022/03/02 12:34:37;;;;;;;;;;;4.60;68.20;;;;;;5071343;28;19928;-70
2022/03/02 12:37:05;;;;;;;;;;;4.60;68.10;;;;;;5072725;28;19927;-70
2022/03/02 12:39:32;;;;;;;;;;;4.60;68.10;;;;;;5065116;28;19940;-70
2022/03/02 12:42:02;;;;;;;;;;;4.60;68.00;;;;;;5058700;28;20594;-71
2022/03/02 12:44:29;;;;;;;;;;;4.60;67.80;;;;;;5055603;28;19930;-70
2022/03/02 12:46:58;;;;;;;;;;;4.60;67.80;;;;;;5055418;28;19928;-70
2022/03/02 12:49:26;;;;;;;;;;;4.60;67.90;;;;;;5060892;28;19932;-71
2022/03/02 12:51:54;;;;;;;;;;;4.60;67.70;;;;;;5068102;28;19956;-71
2022/03/02 12:54:21;;;;;;;;;;;4.70;67.70;;;;;;5060484;28;19929;-71
2022/03/02 12:56:48;;;;;;;;;;;4.70;67.60;;;;;;5073847;28;19932;-70
2022/03/02 12:59:15;;;;;;;;;;;4.70;67.50;;;;;;5064920;28;19932;-71
2022/03/02 13:01:42;;;;;;;;;;;4.70;67.40;;;;;;5060175;28;19939;-70
2022/03/02 13:04:11;;;;;;;;;;;4.70;67.30;;;;;;5062808;28;19929;-71
2022/03/02 13:06:41;;;;;;;;;;;4.80;67.50;;;;;;5062739;28;19935;-70
2022/03/02 13:09:09;;;;;;;;;;;4.80;67.40;;;;;;5062388;28;20285;-70
2022/03/02 13:11:37;;;;;;;;;;;4.80;67.30;;;;;;5058390;28;19939;-70
2022/03/02 13:14:04;;;;;;;;;;;4.80;67.20;;;;;;5069829;28;19951;-70
2022/03/02 13:16:37;;;;;;;;;;;4.80;67.20;;;;;;5060874;28;19936;-70
2022/03/02 13:19:15;;;;;;;;;;;4.80;67.10;;;;;;5067496;28;19928;-71
2022/03/02 13:21:42;;;;;;;;;;;4.80;67.10;;;;;;5060030;28;20534;-71
2022/03/02 13:24:13;;;;;;;;;;;4.80;67.00;;;;;;5058533;28;19935;-70
2022/03/02 13:27:05;;;;;;;;;;;4.90;67.00;;;;;;5071116;28;20026;-70
2022/03/02 13:29:46;;;;;;;;;;;4.90;66.90;;;;;;5051884;28;20043;-70
2022/03/02 13:32:13;;;;;;;;;;;4.90;67.00;;;;;;5056636;28;19925;-70
2022/03/02 13:34:59;;;;;;;;;;;4.90;66.90;;;;;;5056478;28;19962;-70
2022/03/02 13:37:51;;;;;;;;;;;4.90;66.90;;;;;;5055589;28;19995;-71
2022/03/02 13:40:32;;;;;;;;;;;5.00;66.90;;;;;;5055347;28;19933;-70
2022/03/02 13:43:07;;;;;;;;;;;5.00;66.80;;;;;;5058089;28;20465;-70
2022/03/02 13:45:34;;;;;;;;;;;5.00;66.60;;;;;;5068452;28;19928;-70
2022/03/02 13:48:12;;;;;;;;;;;5.10;66.60;;;;;;5060181;28;20172;-70
2022/03/02 13:50:54;;;;;;;;;;;5.10;66.50;;;;;;5058854;28;19929;-70
2022/03/02 13:53:30;;;;;;;;;;;5.10;66.40;;;;;;5056199;28;19936;-71
2022/03/02 13:56:03;;;;;;;;;;;5.10;66.30;;;;;;5055508;28;19928;-70
2022/03/02 13:58:31;;;;;;;;;;;5.10;66.20;;;;;;5055956;28;19929;-70
2022/03/02 14:01:27;;;;;;;;;;;5.20;66.10;;;;;;5058999;28;19928;-70
2022/03/02 14:04:00;;;;;;;;;;;5.20;66.20;;;;;;5029407;28;20001;-70
2022/03/02 14:06:27;;;;;;;;;;;5.20;66.10;;;;;;5058577;28;20419;-70
2022/03/02 14:08:54;;;;;;;;;;;5.20;66.00;;;;;;5058551;28;19946;-71
2022/03/02 14:11:35;;;;;;;;;;;5.30;66.00;;;;;;5052438;28;20506;-71
2022/03/02 14:14:03;;;;;;;;;;;5.30;66.00;;;;;;5069557;28;19932;-70
2022/03/02 14:16:30;;;;;;;;;;;5.40;66.10;;;;;;5062016;28;19939;-70
2022/03/02 14:19:04;;;;;;;;;;;5.30;65.90;;;;;;5058082;28;19932;-71
2022/03/02 14:21:30;;;;;;;;;;;5.30;66.00;;;;;;5062822;28;19928;-71
2022/03/02 14:23:57;;;;;;;;;;;5.30;66.20;;;;;;5053299;28;19929;-72
2022/03/02 14:26:24;;;;;;;;;;;5.40;66.00;;;;;;5063338;28;19978;-71
2022/03/02 14:28:50;;;;;;;;;;;5.40;66.00;;;;;;5067769;28;19928;-71
2022/03/02 14:31:19;;;;;;;;;;;5.40;65.90;;;;;;5058894;28;19929;-71
2022/03/02 14:33:55;;;;;;;;;;;5.40;66.60;;;;;;5059060;28;20077;-71
2022/03/02 14:36:22;;;;;;;;;;;5.40;65.90;;;;;;5059632;28;19959;-71